< < Back
Terminal Aerodrome Forecast


Current Version              Previous Versions:   1  2  3  4  5  6  7  8  9  

Terminal Aerodrome Forecast

484
FTUS42 KJAX 291121
TAFSSI
TAF
KSSI 291121Z 2912/3012 34006KT P6SM SKC
     FM291500 05012KT P6SM SKC
     FM300100 12005KT P6SM SKC
     FM300900 20004KT P6SM SCT250=

Latest METAR

343
SAUS70 KWBC 291700 RRA
MTRSSI
METAR KSSI 291653Z AUTO 06012KT 10SM FEW033 13/04 A3043 RMK AO2 SLP304
T01330039


USA.gov is the U.S. government's official web portal to all federal, state and local government web resources and services.